Time;durP1;ratioP1;P1;durP2;ratioP2;P2;SDS_P1;SDS_P2;PMS_P1;PMS_P2;Temp;Humidity;BMP_temperature;BMP_pressure;BME280_temperature;BME280_humidity;BME280_pressure;Samples;Min_cycle;Max_cycle;Signal;HPM_P1;HPM_P2
2022/12/21 00:00:25;;;;;;;63.83;27.92;;;9.70;99.90;;;;;;5023811;28;20188;-78
2022/12/21 00:02:51;;;;;;;55.67;27.55;;;9.60;99.90;;;;;;5047345;28;20181;-77
2022/12/21 00:05:17;;;;;;;54.33;26.80;;;9.60;99.90;;;;;;5034212;28;20196;-77
2022/12/21 00:07:42;;;;;;;51.50;26.85;;;9.60;99.90;;;;;;5034868;28;20216;-79
2022/12/21 00:10:08;;;;;;;57.38;27.98;;;9.60;99.90;;;;;;5033052;28;20192;-77
2022/12/21 00:12:34;;;;;;;63.92;26.90;;;9.60;99.90;;;;;;5022158;28;20188;-78
2022/12/21 00:15:00;;;;;;;57.88;27.95;;;9.60;99.90;;;;;;5032970;28;20179;-80
2022/12/21 00:17:25;;;;;;;59.15;27.30;;;9.60;99.90;;;;;;5050251;28;20188;-77
2022/12/21 00:19:51;;;;;;;55.00;26.27;;;9.50;99.90;;;;;;5044001;28;20258;-78
2022/12/21 00:22:17;;;;;;;58.70;27.75;;;9.50;99.90;;;;;;5036674;28;20179;-77
2022/12/21 00:24:43;;;;;;;64.43;27.13;;;9.50;99.90;;;;;;5034693;28;20598;-78
2022/12/21 00:27:09;;;;;;;62.67;27.88;;;9.50;99.90;;;;;;5034357;28;20277;-80
2022/12/21 00:29:35;;;;;;;111.38;25.88;;;9.50;99.90;;;;;;5028099;28;20176;-78
2022/12/21 00:32:00;;;;;;;52.03;26.17;;;9.50;99.90;;;;;;5033316;28;20244;-77
2022/12/21 00:34:26;;;;;;;69.93;26.38;;;9.40;99.90;;;;;;5033764;28;20191;-79
2022/12/21 00:36:52;;;;;;;54.33;26.73;;;9.40;99.90;;;;;;5066280;28;20188;-77
2022/12/21 00:39:18;;;;;;;60.30;26.48;;;9.40;99.90;;;;;;5048507;28;20306;-78
2022/12/21 00:41:44;;;;;;;109.75;24.48;;;9.30;99.90;;;;;;5045579;28;20540;-78
2022/12/21 00:44:13;;;;;;;75.88;25.65;;;9.30;99.90;;;;;;5016198;28;20189;-78
2022/12/21 00:46:39;;;;;;;71.15;24.38;;;9.30;99.90;;;;;;5065783;28;20235;-77
2022/12/21 00:49:07;;;;;;;77.45;24.88;;;9.20;99.90;;;;;;5032709;28;20207;-78
2022/12/21 00:51:35;;;;;;;63.67;25.10;;;9.20;99.90;;;;;;5034293;28;20275;-78
2022/12/21 00:54:01;;;;;;;102.18;22.85;;;9.20;99.90;;;;;;5066326;28;20172;-81
2022/12/21 00:56:27;;;;;;;82.82;24.10;;;9.10;99.90;;;;;;5032970;28;20202;-78
2022/12/21 00:58:53;;;;;;;106.13;22.80;;;9.10;99.90;;;;;;5031883;28;20644;-78
2022/12/21 01:01:22;;;;;;;71.88;22.85;;;9.10;99.90;;;;;;5033255;28;20214;-78
2022/12/21 01:03:49;;;;;;;63.72;22.23;;;9.10;99.90;;;;;;5048114;28;20192;-77
2022/12/21 01:06:17;;;;;;;87.93;24.00;;;9.00;99.90;;;;;;5049010;28;20215;-78
2022/12/21 01:08:44;;;;;;;84.78;25.42;;;9.00;99.90;;;;;;5049967;28;20195;-77
2022/12/21 01:11:13;;;;;;;98.75;24.10;;;9.00;99.90;;;;;;5031495;28;20188;-78
2022/12/21 01:13:39;;;;;;;89.88;24.27;;;8.90;99.90;;;;;;5033175;28;20219;-80
2022/12/21 01:16:15;;;;;;;53.08;24.27;;;8.90;99.90;;;;;;5031931;28;20184;-77
2022/12/21 01:18:41;;;;;;;71.68;23.05;;;8.80;99.90;;;;;;5033851;28;20170;-79
2022/12/21 01:21:17;;;;;;;74.70;24.05;;;8.80;99.90;;;;;;5048483;28;20207;-78
2022/12/21 01:23:43;;;;;;;51.60;23.27;;;8.80;99.90;;;;;;5037163;28;20210;-77
2022/12/21 01:26:08;;;;;;;50.08;22.98;;;8.80;99.90;;;;;;5033362;28;20218;-78
2022/12/21 01:28:35;;;;;;;57.53;22.80;;;8.80;99.90;;;;;;5031444;28;20176;-79
2022/12/21 01:31:04;;;;;;;61.42;22.73;;;8.80;99.90;;;;;;5026295;28;20557;-78
2022/12/21 01:33:30;;;;;;;52.70;23.02;;;8.70;99.90;;;;;;5044780;28;20180;-79
2022/12/21 01:35:56;;;;;;;50.63;22.80;;;8.70;99.90;;;;;;5032462;28;20536;-80
2022/12/21 01:38:21;;;;;;;54.40;22.20;;;8.70;99.90;;;;;;5048813;28;20537;-78
2022/12/21 01:40:48;;;;;;;52.53;23.42;;;8.70;99.90;;;;;;5030785;28;20196;-79
2022/12/21 01:43:39;;;;;;;46.55;21.33;;;8.70;99.90;;;;;;5028951;28;20284;-79
2022/12/21 01:46:09;;;;;;;50.53;23.30;;;8.70;99.90;;;;;;5029598;28;20224;-81
2022/12/21 01:48:40;;;;;;;50.55;22.20;;;8.70;99.90;;;;;;5032591;28;20267;-78
2022/12/21 01:51:07;;;;;;;49.67;20.80;;;8.60;99.90;;;;;;5064328;28;20184;-77
2022/12/21 01:53:58;;;;;;;57.00;22.20;;;8.70;99.90;;;;;;5025459;28;20228;-77
2022/12/21 01:56:29;;;;;;;52.45;21.17;;;8.60;99.90;;;;;;5012437;28;20200;-77
2022/12/21 01:58:59;;;;;;;58.15;21.58;;;8.60;99.90;;;;;;5023492;28;20670;-78
2022/12/21 02:01:25;;;;;;;51.58;21.05;;;8.60;99.90;;;;;;5048122;28;20180;-78
2022/12/21 02:03:53;;;;;;;49.75;21.50;;;8.60;99.90;;;;;;5019905;28;20253;-77
2022/12/21 02:06:28;;;;;;;72.13;20.90;;;8.60;99.90;;;;;;5048537;28;20215;-77
2022/12/21 02:08:55;;;;;;;52.17;20.45;;;8.60;99.90;;;;;;5038251;28;20183;-77
2022/12/21 02:11:21;;;;;;;64.35;20.55;;;8.60;99.90;;;;;;5031065;28;20202;-79
2022/12/21 02:13:47;;;;;;;52.08;20.30;;;8.60;99.90;;;;;;5031977;28;20631;-77
2022/12/21 02:16:27;;;;;;;53.20;19.42;;;8.50;99.90;;;;;;5013952;28;20187;-78
2022/12/21 02:19:39;;;;;;;83.10;18.85;;;8.50;99.90;;;;;;5063884;28;20179;-78
2022/12/21 02:22:10;;;;;;;57.83;18.48;;;8.50;99.90;;;;;;5000811;28;20632;-77
2022/12/21 02:25:14;;;;;;;67.32;18.58;;;8.40;99.90;;;;;;5031827;28;20586;-78
2022/12/21 02:28:02;;;;;;;77.68;17.65;;;8.40;99.90;;;;;;5052106;28;20216;-78
2022/12/21 02:30:56;;;;;;;64.45;18.02;;;8.40;99.90;;;;;;5049759;28;20636;-78
2022/12/21 02:33:42;;;;;;;66.90;18.33;;;8.40;99.90;;;;;;5028585;28;20756;-77
2022/12/21 02:36:26;;;;;;;77.45;18.52;;;8.30;99.90;;;;;;5043764;28;20176;-77
2022/12/21 02:39:22;;;;;;;49.30;18.33;;;8.30;99.90;;;;;;5055229;28;20682;-77
2022/12/21 02:44:12;;;;;;;75.03;19.42;;;8.30;99.90;;;;;;4989627;28;20192;-78
2022/12/21 02:45:00;;;;;;;57.60;19.15;;;8.30;99.90;;;;;;5030810;28;20318;-78
2022/12/21 02:47:37;;;;;;;79.00;18.08;;;8.30;99.90;;;;;;5048174;28;20212;-78
2022/12/21 02:50:06;;;;;;;43.45;18.42;;;8.20;99.90;;;;;;5047449;28;20269;-78
2022/12/21 02:52:43;;;;;;;66.40;16.95;;;8.20;99.90;;;;;;5043002;28;20294;-77
2022/12/21 02:55:11;;;;;;;75.20;15.98;;;8.20;99.90;;;;;;5046176;28;20186;-78
2022/12/21 02:57:43;;;;;;;44.63;16.77;;;8.10;99.90;;;;;;5032093;28;20175;-77
2022/12/21 03:00:17;;;;;;;43.10;16.40;;;8.10;99.90;;;;;;5045911;28;20199;-77
2022/12/21 03:06:28;;;;;;;51.13;15.25;;;8.00;99.90;;;;;;5038416;28;20666;-78
2022/12/21 03:08:55;;;;;;;84.55;15.73;;;8.00;99.90;;;;;;5088591;28;20597;-77
2022/12/21 03:11:30;;;;;;;37.33;15.23;;;8.00;99.90;;;;;;5048398;28;20226;-77
2022/12/21 03:14:13;;;;;;;65.75;16.42;;;8.00;99.90;;;;;;5050842;28;20267;-78
2022/12/21 03:16:51;;;;;;;57.28;16.17;;;8.00;99.90;;;;;;5037365;28;20187;-77
2022/12/21 03:19:40;;;;;;;49.08;16.08;;;7.90;99.90;;;;;;5032861;28;20241;-77
2022/12/21 03:22:29;;;;;;;47.38;16.13;;;7.90;99.90;;;;;;5033166;28;20192;-78
2022/12/21 03:25:03;;;;;;;62.17;16.63;;;7.90;99.90;;;;;;5034175;28;20229;-77
2022/12/21 03:27:36;;;;;;;68.47;13.82;;;7.90;99.90;;;;;;5035335;28;20254;-77
2022/12/21 03:30:11;;;;;;;52.17;15.52;;;7.80;99.90;;;;;;5029022;28;20647;-78
2022/12/21 03:32:45;;;;;;;75.28;15.18;;;7.80;99.90;;;;;;5035437;28;20161;-78
2022/12/21 03:35:23;;;;;;;65.18;14.40;;;7.80;99.90;;;;;;5034622;28;20191;-77
2022/12/21 03:37:51;;;;;;;45.97;14.60;;;7.70;99.90;;;;;;5050158;28;20525;-78
2022/12/21 03:40:22;;;;;;;53.85;12.77;;;7.70;99.90;;;;;;5057636;28;20195;-78
2022/12/21 03:42:59;;;;;;;37.22;13.95;;;7.70;99.90;;;;;;5015575;28;20201;-77
2022/12/21 03:45:36;;;;;;;42.22;13.88;;;7.70;99.90;;;;;;5029866;28;20203;-82
2022/12/21 03:48:18;;;;;;;67.90;15.30;;;7.60;99.90;;;;;;5034094;28;20204;-77
2022/12/21 03:50:47;;;;;;;56.97;14.45;;;7.60;99.90;;;;;;5033665;28;20176;-77
2022/12/21 03:53:31;;;;;;;53.55;14.60;;;7.60;99.90;;;;;;5034600;28;20216;-78
2022/12/21 03:56:03;;;;;;;68.40;14.77;;;7.60;99.90;;;;;;5065717;28;20183;-75
2022/12/21 03:58:29;;;;;;;76.70;15.50;;;7.60;99.90;;;;;;5033305;28;20184;-81
2022/12/21 04:01:40;;;;;;;49.03;15.80;;;7.60;99.90;;;;;;5033379;28;20192;-76
2022/12/21 04:04:21;;;;;;;99.13;13.45;;;7.60;99.90;;;;;;5032080;28;20187;-77
2022/12/21 04:06:49;;;;;;;58.33;15.10;;;7.60;99.90;;;;;;5035473;28;20206;-76
2022/12/21 04:09:15;;;;;;;38.75;14.20;;;7.50;99.90;;;;;;5034146;28;20187;-76
2022/12/21 04:14:27;;;;;;;35.42;13.77;;;7.50;99.90;;;;;;5046196;28;20270;-76
2022/12/21 04:16:53;;;;;;;75.25;14.18;;;7.50;99.90;;;;;;5066943;28;20223;-78
2022/12/21 04:22:03;;;;;;;36.78;13.07;;;7.50;99.90;;;;;;5048287;28;20238;-76
2022/12/21 04:29:57;;;;;;;42.00;12.48;;;7.50;99.90;;;;;;5059653;28;20191;-78
2022/12/21 04:32:23;;;;;;;36.35;13.27;;;7.40;99.90;;;;;;5033464;28;20188;-78
2022/12/21 04:34:49;;;;;;;34.53;13.38;;;7.40;99.90;;;;;;5032972;28;20542;-78
2022/12/21 04:37:35;;;;;;;48.30;13.55;;;7.40;99.90;;;;;;5049772;28;20258;-77
2022/12/21 04:40:03;;;;;;;50.78;13.10;;;7.40;99.90;;;;;;5027961;28;20223;-77
2022/12/21 04:42:28;;;;;;;37.58;13.25;;;7.40;99.90;;;;;;5027673;28;20184;-77
2022/12/21 04:44:54;;;;;;;50.00;13.40;;;7.40;99.90;;;;;;5023781;28;20179;-77
2022/12/21 04:47:20;;;;;;;50.10;13.50;;;7.40;99.90;;;;;;5032916;28;20576;-77
2022/12/21 04:49:46;;;;;;;99.65;13.90;;;7.50;99.90;;;;;;5064982;28;20581;-77
2022/12/21 04:52:12;;;;;;;38.85;12.98;;;7.40;99.90;;;;;;5034038;28;20216;-78
2022/12/21 04:54:37;;;;;;;50.38;12.38;;;7.50;99.90;;;;;;5036143;28;20529;-78
2022/12/21 04:57:03;;;;;;;37.88;13.52;;;7.40;99.90;;;;;;5029685;28;20192;-78
2022/12/21 04:59:29;;;;;;;41.70;13.15;;;7.40;99.90;;;;;;5024161;28;20552;-80
2022/12/21 05:01:54;;;;;;;64.65;13.38;;;7.40;99.90;;;;;;5034215;28;20233;-77
2022/12/21 05:04:20;;;;;;;40.22;13.10;;;7.40;99.90;;;;;;5033799;28;20271;-77
2022/12/21 05:06:46;;;;;;;52.47;13.10;;;7.40;99.90;;;;;;5047085;28;20212;-78
2022/12/21 05:09:14;;;;;;;49.47;13.57;;;7.40;99.90;;;;;;5032722;28;20238;-78
2022/12/21 05:11:40;;;;;;;33.45;13.10;;;7.40;99.90;;;;;;5033874;28;20218;-77
2022/12/21 05:14:06;;;;;;;52.30;12.82;;;7.40;99.90;;;;;;5016215;28;20600;-78
2022/12/21 05:16:31;;;;;;;39.65;13.70;;;7.40;99.90;;;;;;5047886;28;20558;-77
2022/12/21 05:18:57;;;;;;;62.25;13.38;;;7.40;99.90;;;;;;5032556;28;20271;-77
2022/12/21 05:21:23;;;;;;;53.45;14.20;;;7.40;99.90;;;;;;5014418;28;20222;-77
2022/12/21 05:23:49;;;;;;;50.08;13.35;;;7.40;99.90;;;;;;5032201;28;20555;-78
2022/12/21 05:26:16;;;;;;;48.10;12.77;;;7.40;99.90;;;;;;5046962;28;20530;-78
2022/12/21 05:28:47;;;;;;;39.53;13.13;;;7.40;99.90;;;;;;5033192;28;20180;-77
2022/12/21 05:31:14;;;;;;;51.85;12.15;;;7.40;99.90;;;;;;5031054;28;20188;-78
2022/12/21 05:33:40;;;;;;;46.15;12.18;;;7.40;99.90;;;;;;5032300;28;20790;-77
2022/12/21 05:36:11;;;;;;;42.10;12.77;;;7.40;99.90;;;;;;5032119;28;20184;-78
2022/12/21 05:38:37;;;;;;;68.75;12.80;;;7.40;99.90;;;;;;5031606;28;20203;-77
2022/12/21 05:41:03;;;;;;;31.27;12.02;;;7.40;99.90;;;;;;5030319;28;20633;-79
2022/12/21 05:43:30;;;;;;;59.55;12.70;;;7.40;99.90;;;;;;5032121;28;20194;-78
2022/12/21 05:46:01;;;;;;;71.03;13.38;;;7.40;99.90;;;;;;5031288;28;20188;-78
2022/12/21 05:48:26;;;;;;;73.50;12.43;;;7.40;99.90;;;;;;5032995;28;20206;-77
2022/12/21 05:50:52;;;;;;;57.50;12.32;;;7.40;99.90;;;;;;5064244;28;20659;-78
2022/12/21 05:53:18;;;;;;;37.30;12.45;;;7.40;99.90;;;;;;5017243;28;20236;-78
2022/12/21 05:55:44;;;;;;;56.10;12.65;;;7.40;99.90;;;;;;5026092;28;20204;-78
2022/12/21 05:58:14;;;;;;;45.70;12.75;;;7.40;99.90;;;;;;5033030;28;20187;-77
2022/12/21 06:00:40;;;;;;;49.50;11.73;;;7.40;99.90;;;;;;5031050;28;20180;-77
2022/12/21 06:03:06;;;;;;;57.72;12.45;;;7.40;99.90;;;;;;5030302;28;20266;-77
2022/12/21 06:05:36;;;;;;;83.43;12.27;;;7.40;99.90;;;;;;5048258;28;20671;-76
2022/12/21 06:08:02;;;;;;;41.83;12.25;;;7.30;99.90;;;;;;5039698;28;20620;-77
2022/12/21 06:10:28;;;;;;;67.32;12.25;;;7.30;99.90;;;;;;5046930;28;20188;-77
2022/12/21 06:12:54;;;;;;;73.43;12.40;;;7.30;99.90;;;;;;5033150;28;20176;-77
2022/12/21 06:15:20;;;;;;;55.47;13.05;;;7.20;99.90;;;;;;5032207;28;20191;-78
2022/12/21 06:17:47;;;;;;;70.20;12.23;;;7.20;99.90;;;;;;5047538;28;20645;-78
2022/12/21 06:20:17;;;;;;;80.18;11.52;;;7.30;99.90;;;;;;5047067;28;20200;-77
2022/12/21 06:22:43;;;;;;;61.78;10.90;;;7.20;99.90;;;;;;5031010;28;20663;-78
2022/12/21 06:25:09;;;;;;;61.38;12.73;;;7.20;99.90;;;;;;5038787;28;20192;-78
2022/12/21 06:27:34;;;;;;;60.67;12.00;;;7.20;99.90;;;;;;5053084;28;20631;-77
2022/12/21 06:30:00;;;;;;;47.88;11.85;;;7.20;99.90;;;;;;5034325;28;20180;-77
2022/12/21 06:32:26;;;;;;;54.10;12.55;;;7.20;99.90;;;;;;5034512;28;20298;-77
2022/12/21 06:34:52;;;;;;;36.05;12.27;;;7.20;99.90;;;;;;5033707;28;20206;-77
2022/12/21 06:37:17;;;;;;;51.38;11.75;;;7.20;99.90;;;;;;5034544;28;20200;-77
2022/12/21 06:39:43;;;;;;;50.45;12.73;;;7.10;99.90;;;;;;5066123;28;20180;-76
2022/12/21 06:42:09;;;;;;;40.47;13.57;;;7.20;99.90;;;;;;5048462;28;20191;-77
2022/12/21 06:44:35;;;;;;;54.90;12.23;;;7.10;99.90;;;;;;5050011;28;20206;-77
2022/12/21 06:47:01;;;;;;;37.35;13.18;;;7.10;99.90;;;;;;5036100;28;20310;-77
2022/12/21 06:49:27;;;;;;;43.55;13.90;;;7.10;99.90;;;;;;5034157;28;20576;-76
2022/12/21 06:51:52;;;;;;;71.95;13.45;;;7.20;99.90;;;;;;5036347;28;20224;-77
2022/12/21 06:54:18;;;;;;;50.85;13.55;;;7.10;99.90;;;;;;5034302;28;20865;-77
2022/12/21 06:56:44;;;;;;;49.05;14.43;;;7.10;99.90;;;;;;5034458;28;20266;-77
2022/12/21 06:59:11;;;;;;;46.95;12.60;;;7.10;99.90;;;;;;5032928;28;20206;-77
2022/12/21 07:01:37;;;;;;;57.85;14.60;;;7.20;99.90;;;;;;5063914;28;20200;-77
2022/12/21 07:04:03;;;;;;;96.85;14.68;;;7.20;99.90;;;;;;5026874;28;20184;-78
2022/12/21 07:06:31;;;;;;;49.42;15.63;;;7.20;99.90;;;;;;5046755;28;20215;-77
2022/12/21 07:08:57;;;;;;;46.17;14.10;;;7.20;99.90;;;;;;5035691;28;20176;-77
2022/12/21 07:11:26;;;;;;;91.97;15.60;;;7.20;99.90;;;;;;5035309;28;20191;-77
2022/12/21 07:13:52;;;;;;;53.00;15.40;;;7.20;99.90;;;;;;5017124;28;20315;-77
2022/12/21 07:16:19;;;;;;;51.42;14.48;;;7.20;99.90;;;;;;5034433;28;20192;-77
2022/12/21 07:18:44;;;;;;;58.42;15.50;;;7.20;99.90;;;;;;5048034;28;20323;-77
2022/12/21 07:21:13;;;;;;;67.95;15.68;;;7.20;99.90;;;;;;5036359;28;20189;-78
2022/12/21 07:23:40;;;;;;;58.85;15.13;;;7.20;99.90;;;;;;5032651;28;20176;-78
2022/12/21 07:26:08;;;;;;;102.75;17.02;;;7.20;99.90;;;;;;5030111;28;20190;-77
2022/12/21 07:28:34;;;;;;;80.38;17.58;;;7.20;99.90;;;;;;5022680;28;20181;-77
2022/12/21 07:31:08;;;;;;;58.20;17.88;;;7.30;99.90;;;;;;5019105;28;20632;-76
2022/12/21 07:33:35;;;;;;;65.90;18.80;;;7.20;99.90;;;;;;5023183;28;20577;-78
2022/12/21 07:36:02;;;;;;;65.32;18.30;;;7.20;99.90;;;;;;5025108;28;20195;-77
2022/12/21 07:38:29;;;;;;;66.72;20.30;;;7.30;99.90;;;;;;5021643;28;20637;-77
2022/12/21 07:40:56;;;;;;;66.25;19.17;;;7.30;99.90;;;;;;5020756;28;20656;-77
2022/12/21 07:43:22;;;;;;;65.45;20.88;;;7.30;99.90;;;;;;5048054;28;20190;-77
2022/12/21 07:46:03;;;;;;;69.90;21.15;;;7.30;99.90;;;;;;5049120;28;20947;-77
2022/12/21 07:48:30;;;;;;;63.92;21.40;;;7.30;99.90;;;;;;5034979;28;20219;-77
2022/12/21 07:50:56;;;;;;;65.78;23.02;;;7.30;99.90;;;;;;5054887;28;20286;-76
2022/12/21 07:53:21;;;;;;;70.35;22.23;;;7.30;99.90;;;;;;5027667;28;20310;-77
2022/12/21 07:55:47;;;;;;;74.85;22.88;;;7.40;99.90;;;;;;5044548;28;20190;-77
2022/12/21 07:58:13;;;;;;;76.47;23.52;;;7.40;99.90;;;;;;5032458;28;20605;-77
2022/12/21 08:00:39;;;;;;;78.85;23.60;;;7.40;99.90;;;;;;5024919;28;20191;-84
2022/12/21 08:03:06;;;;;;;73.72;23.23;;;7.40;99.90;;;;;;5024530;28;20188;-77
2022/12/21 08:05:32;;;;;;;79.97;24.95;;;7.40;99.90;;;;;;5051603;28;20214;-78
2022/12/21 08:08:00;;;;;;;66.35;23.65;;;7.40;99.90;;;;;;5031804;28;20223;-77
2022/12/21 08:10:26;;;;;;;66.47;23.30;;;7.40;99.90;;;;;;5032636;28;20291;-78
2022/12/21 08:12:52;;;;;;;69.93;23.63;;;7.40;99.90;;;;;;5027990;28;20610;-77
2022/12/21 08:15:21;;;;;;;68.20;24.58;;;7.40;99.90;;;;;;5027055;28;20647;-78
2022/12/21 08:17:47;;;;;;;73.95;24.90;;;7.40;99.90;;;;;;5016738;28;20195;-77
2022/12/21 08:20:13;;;;;;;63.85;24.15;;;7.40;99.90;;;;;;5034101;28;20714;-77
2022/12/21 08:22:40;;;;;;;61.92;25.15;;;7.50;99.90;;;;;;5032792;28;20192;-77
2022/12/21 08:25:06;;;;;;;69.32;25.33;;;7.40;99.90;;;;;;5047309;28;20201;-83
2022/12/21 08:27:32;;;;;;;65.43;24.35;;;7.50;99.90;;;;;;5031255;28;20219;-77
2022/12/21 08:29:58;;;;;;;66.78;26.48;;;7.40;99.90;;;;;;5029647;28;20214;-81
2022/12/21 08:32:23;;;;;;;58.38;25.52;;;7.50;99.90;;;;;;5028461;28;20184;-78
2022/12/21 08:34:49;;;;;;;66.07;24.75;;;7.50;99.90;;;;;;5030407;28;20192;-78
2022/12/21 08:37:15;;;;;;;65.75;24.50;;;7.50;99.90;;;;;;5043107;28;20199;-77
2022/12/21 08:39:40;;;;;;;58.83;23.13;;;7.50;99.90;;;;;;5056759;28;20180;-78
2022/12/21 08:42:06;;;;;;;64.43;24.63;;;7.50;99.90;;;;;;5033369;28;20215;-78
2022/12/21 08:44:32;;;;;;;70.80;24.50;;;7.50;99.90;;;;;;5040244;28;20192;-77
2022/12/21 08:46:58;;;;;;;57.22;24.27;;;7.50;99.90;;;;;;5033901;28;20220;-77
2022/12/21 08:49:24;;;;;;;74.45;24.83;;;7.50;99.90;;;;;;5027350;28;20203;-84
2022/12/21 08:51:49;;;;;;;85.13;24.23;;;7.50;99.90;;;;;;5032979;28;20237;-78
2022/12/21 08:54:15;;;;;;;67.78;25.27;;;7.50;99.90;;;;;;5020357;28;20215;-77
2022/12/21 08:56:41;;;;;;;71.28;25.50;;;7.50;99.90;;;;;;5022917;28;20642;-78
2022/12/21 08:59:08;;;;;;;73.43;24.95;;;7.50;99.90;;;;;;5022472;28;20194;-77
2022/12/21 09:01:35;;;;;;;68.75;25.65;;;7.50;99.90;;;;;;5033080;28;20698;-77
2022/12/21 09:04:01;;;;;;;65.45;26.15;;;7.50;99.90;;;;;;5032280;28;20698;-78
2022/12/21 09:06:27;;;;;;;63.08;26.02;;;7.60;99.90;;;;;;5050711;28;20214;-77
2022/12/21 09:08:53;;;;;;;68.55;26.92;;;7.60;99.90;;;;;;5034465;28;20188;-77
2022/12/21 09:11:20;;;;;;;63.05;26.42;;;7.60;99.90;;;;;;5020586;28;20193;-77
2022/12/21 09:13:46;;;;;;;67.53;27.15;;;7.60;99.90;;;;;;5026104;28;20188;-78
2022/12/21 09:16:18;;;;;;;75.18;26.83;;;7.60;99.90;;;;;;5033194;28;20180;-80
2022/12/21 09:18:44;;;;;;;68.70;27.38;;;7.70;99.90;;;;;;5042166;28;20186;-77
2022/12/21 09:21:11;;;;;;;65.82;26.70;;;7.70;99.90;;;;;;5032086;28;20640;-77
2022/12/21 09:23:37;;;;;;;74.65;28.05;;;7.70;99.90;;;;;;5030757;28;20173;-76
2022/12/21 09:26:05;;;;;;;75.00;27.17;;;7.80;99.90;;;;;;5031817;28;20188;-76
2022/12/21 09:28:31;;;;;;;71.45;27.10;;;7.70;99.90;;;;;;5033271;28;20234;-80
2022/12/21 09:31:09;;;;;;;73.35;28.45;;;7.70;99.90;;;;;;5031239;28;20557;-76
2022/12/21 09:33:36;;;;;;;71.22;26.80;;;7.80;99.90;;;;;;5033277;28;20183;-76
2022/12/21 09:36:02;;;;;;;69.05;27.65;;;7.80;99.90;;;;;;5031567;28;20213;-77
2022/12/21 09:38:29;;;;;;;70.32;27.23;;;7.90;99.90;;;;;;5032991;28;20274;-76
2022/12/21 09:41:00;;;;;;;70.53;27.77;;;7.80;99.90;;;;;;5017926;28;20235;-77
2022/12/21 09:43:32;;;;;;;80.15;27.67;;;7.90;99.90;;;;;;5021592;28;20179;-80
2022/12/21 09:46:11;;;;;;;72.25;27.08;;;7.90;99.90;;;;;;5030249;28;20172;-77
2022/12/21 09:48:59;;;;;;;74.15;27.58;;;7.90;99.90;;;;;;5064987;28;20230;-77
2022/12/21 09:51:26;;;;;;;75.00;28.02;;;7.90;99.90;;;;;;5047431;28;20180;-77
2022/12/21 09:54:11;;;;;;;71.15;28.30;;;8.00;99.90;;;;;;5033086;28;20191;-77
2022/12/21 09:56:43;;;;;;;74.88;28.55;;;8.00;99.90;;;;;;5031242;28;20228;-77
2022/12/21 09:59:15;;;;;;;75.82;27.88;;;8.00;99.90;;;;;;5031395;28;20648;-78
2022/12/21 10:02:06;;;;;;;75.35;28.98;;;8.00;99.90;;;;;;5044056;28;20188;-83
2022/12/21 10:05:00;;;;;;;67.07;27.38;;;8.10;99.90;;;;;;5026929;28;20175;-78
2022/12/21 10:08:14;;;;;;;67.95;28.33;;;8.10;99.90;;;;;;5024879;28;20322;-77
2022/12/21 10:10:48;;;;;;;72.22;27.98;;;8.10;99.90;;;;;;5028077;28;20202;-77
2022/12/21 10:13:38;;;;;;;69.18;28.70;;;8.20;99.90;;;;;;5026091;28;20179;-78
2022/12/21 10:16:48;;;;;;;75.45;27.52;;;8.20;99.90;;;;;;5028634;28;20183;-78
2022/12/21 10:19:32;;;;;;;73.72;28.17;;;8.20;99.90;;;;;;4975314;28;20201;-79
2022/12/21 10:22:06;;;;;;;71.97;29.83;;;8.20;99.90;;;;;;4987735;28;20220;-83
2022/12/21 10:24:47;;;;;;;75.82;29.10;;;8.20;99.90;;;;;;5008227;28;20252;-78
2022/12/21 10:27:26;;;;;;;81.63;29.67;;;8.20;99.90;;;;;;5043022;28;20208;-80
2022/12/21 10:29:56;;;;;;;76.00;30.30;;;8.20;99.90;;;;;;5028677;28;20237;-78
2022/12/21 10:32:25;;;;;;;70.88;30.33;;;8.30;99.90;;;;;;5032774;28;20164;-77
2022/12/21 10:34:54;;;;;;;77.22;30.73;;;8.30;99.90;;;;;;5031224;28;20184;-77
2022/12/21 10:37:21;;;;;;;73.03;30.08;;;8.40;99.90;;;;;;5031273;28;20176;-81
2022/12/21 10:39:55;;;;;;;70.78;29.80;;;8.40;99.90;;;;;;5046336;28;20199;-78
2022/12/21 10:42:40;;;;;;;69.68;27.52;;;8.50;99.90;;;;;;5048097;28;20271;-77
2022/12/21 10:45:14;;;;;;;68.80;28.73;;;8.60;99.90;;;;;;5026342;28;20552;-80
2022/12/21 10:47:43;;;;;;;67.50;28.52;;;8.80;99.90;;;;;;5015059;28;20207;-77
2022/12/21 10:50:13;;;;;;;66.85;28.17;;;9.00;99.90;;;;;;5031164;28;20192;-77
2022/12/21 10:52:48;;;;;;;58.55;26.98;;;9.20;99.90;;;;;;5032326;28;20219;-78
2022/12/21 10:55:17;;;;;;;51.67;25.55;;;9.30;99.90;;;;;;5036905;28;20180;-78
2022/12/21 10:57:49;;;;;;;52.78;24.42;;;9.50;99.90;;;;;;5027360;28;20187;-78
2022/12/21 11:00:41;;;;;;;49.97;23.23;;;9.70;99.90;;;;;;5025826;28;20188;-78
2022/12/21 11:03:26;;;;;;;47.97;23.67;;;9.90;99.90;;;;;;5033048;28;20173;-78
2022/12/21 11:05:53;;;;;;;49.55;23.30;;;10.10;99.90;;;;;;5026215;28;20223;-78
2022/12/21 11:08:25;;;;;;;45.05;23.08;;;10.20;99.90;;;;;;5013301;28;20244;-79
2022/12/21 11:11:02;;;;;;;48.78;24.17;;;10.30;99.90;;;;;;5027453;28;20194;-78
2022/12/21 11:13:30;;;;;;;44.40;22.95;;;10.40;99.90;;;;;;5065727;28;20182;-80
2022/12/21 11:16:09;;;;;;;55.10;23.95;;;10.50;99.90;;;;;;5030767;28;20215;-84
2022/12/21 11:18:44;;;;;;;46.97;23.00;;;10.50;99.90;;;;;;5035101;28;20188;-80
2022/12/21 11:21:34;;;;;;;45.33;21.67;;;10.70;99.90;;;;;;5034665;28;20636;-79
2022/12/21 11:24:12;;;;;;;43.45;21.65;;;10.80;99.90;;;;;;5033308;28;20188;-82
2022/12/21 11:26:46;;;;;;;41.08;21.02;;;10.90;99.90;;;;;;5015288;28;20350;-79
2022/12/21 11:29:27;;;;;;;41.65;21.63;;;11.00;99.90;;;;;;5031921;28;20189;-79
2022/12/21 11:31:55;;;;;;;42.50;21.80;;;11.10;99.90;;;;;;5034459;28;20168;-81
2022/12/21 11:34:40;;;;;;;42.22;20.40;;;11.20;99.90;;;;;;5030399;28;20359;-80
2022/12/21 11:37:46;;;;;;;43.50;20.17;;;11.40;99.90;;;;;;5031305;28;20223;-79
2022/12/21 11:40:11;;;;;;;40.53;20.42;;;11.50;99.90;;;;;;5024322;28;20294;-77
2022/12/21 11:43:03;;;;;;;44.85;19.73;;;11.60;99.90;;;;;;5066514;28;20216;-77
2022/12/21 11:45:41;;;;;;;46.67;19.13;;;11.70;99.90;;;;;;5045009;28;20687;-81
2022/12/21 11:48:12;;;;;;;40.20;19.13;;;11.90;99.90;;;;;;5024458;28;20203;-79
2022/12/21 11:51:15;;;;;;;40.10;18.42;;;12.00;99.90;;;;;;5028989;28;20241;-79
2022/12/21 11:54:14;;;;;;;42.28;17.25;;;12.20;99.90;;;;;;5022508;28;20756;-78
2022/12/21 11:56:53;;;;;;;40.17;17.90;;;12.30;99.90;;;;;;5027195;28;20184;-78
2022/12/21 11:59:46;;;;;;;38.65;16.55;;;12.40;99.90;;;;;;5032898;28;20257;-79
2022/12/21 12:02:37;;;;;;;40.03;17.83;;;12.50;99.90;;;;;;5034127;28;20694;-79
2022/12/21 12:05:09;;;;;;;36.90;17.33;;;12.70;99.90;;;;;;5022009;28;20207;-80
2022/12/21 12:07:56;;;;;;;38.38;16.20;;;12.80;99.90;;;;;;5047881;28;20207;-80
2022/12/21 12:10:37;;;;;;;36.30;15.35;;;12.90;99.90;;;;;;5048412;28;20198;-79
2022/12/21 12:13:18;;;;;;;39.45;16.17;;;12.90;99.90;;;;;;5047898;28;20198;-79
2022/12/21 12:16:03;;;;;;;35.78;15.48;;;12.90;99.90;;;;;;5049046;28;20206;-80
2022/12/21 12:18:55;;;;;;;41.92;16.38;;;12.90;99.90;;;;;;5049127;28;20188;-80
2022/12/21 12:21:44;;;;;;;40.80;15.82;;;12.90;99.90;;;;;;5049199;28;20545;-81
2022/12/21 12:24:33;;;;;;;35.67;15.88;;;12.80;99.90;;;;;;5031924;28;20180;-80
2022/12/21 12:27:44;;;;;;;39.50;15.55;;;12.80;99.90;;;;;;5033250;28;20204;-80
2022/12/21 12:30:37;;;;;;;35.17;15.07;;;12.80;99.90;;;;;;5024074;28;20223;-82
2022/12/21 12:33:26;;;;;;;36.90;14.55;;;12.80;99.90;;;;;;5049350;28;20603;-80
2022/12/21 12:36:16;;;;;;;41.53;15.55;;;12.70;99.90;;;;;;5060036;28;20198;-81
2022/12/21 12:39:14;;;;;;;37.78;15.27;;;12.70;99.90;;;;;;5020465;28;20184;-80
2022/12/21 12:41:49;;;;;;;39.33;14.63;;;12.70;99.90;;;;;;5014021;28;20164;-83
2022/12/21 12:44:38;;;;;;;35.50;15.25;;;12.70;99.90;;;;;;5019131;28;20187;-79
2022/12/21 12:47:27;;;;;;;34.22;13.98;;;12.70;99.90;;;;;;5023154;28;20258;-78
2022/12/21 12:50:17;;;;;;;35.22;13.88;;;12.70;99.90;;;;;;5033337;28;20187;-77
2022/12/21 12:52:49;;;;;;;34.28;15.20;;;12.60;99.90;;;;;;5033863;28;20219;-79
2022/12/21 12:55:48;;;;;;;32.92;14.43;;;12.70;99.90;;;;;;5032783;28;20191;-78
2022/12/21 12:58:18;;;;;;;39.75;16.10;;;12.70;99.90;;;;;;5029221;28;20270;-83
2022/12/21 13:01:02;;;;;;;38.40;15.60;;;12.70;99.90;;;;;;5031652;28;20290;-79
2022/12/21 13:03:40;;;;;;;36.35;15.13;;;12.70;99.90;;;;;;5033674;28;20226;-78
2022/12/21 13:06:38;;;;;;;36.10;15.93;;;12.60;99.90;;;;;;5047338;28;20635;-78
2022/12/21 13:09:31;;;;;;;33.78;14.93;;;12.50;99.90;;;;;;5022214;28;20358;-78
2022/12/21 13:12:20;;;;;;;36.10;15.43;;;12.30;99.90;;;;;;5036825;28;20179;-78
2022/12/21 13:15:21;;;;;;;34.55;15.70;;;12.20;99.90;;;;;;5030150;28;20211;-78
2022/12/21 13:18:39;;;;;;;42.15;15.95;;;12.10;99.90;;;;;;5002304;28;20200;-78